ADDS METAR Data INFO
IDs: Format: Raw Decoded Include TAF

Data at: 1526 UTC 18 Jun 2018

KLYH 181454Z 00000KT 10SM CLR 31/21 A3011 RMK AO2 SLP185 T03060206 58002
KLYH 181354Z 26003KT 10SM CLR 28/22 A3012 RMK AO2 SLP188 T02780217
KLYH 181254Z 23003KT 10SM CLR 27/22 A3013 RMK AO2 SLP190 T02670217
KLYH 181154Z 00000KT 10SM CLR 24/21 A3012 RMK AO2 SLP188 T02440211 10244 20200 50002
KLYH 181054Z 00000KT 6SM BR CLR 21/20 A3012 RMK AO2 SLP188 T02110200
KLYH 180954Z AUTO 00000KT 5SM BR CLR 21/20 A3012 RMK AO2 SLP188 T02060200
KLYH 180854Z AUTO 00000KT 7SM CLR 21/19 A3011 RMK AO2 SLP186 T02060194 50004
KLYH 180754Z AUTO 00000KT 9SM CLR 21/19 A3012 RMK AO2 SLP186 T02060194
KLYH 180654Z AUTO 00000KT 8SM CLR 21/20 A3011 RMK AO2 SLP183 T02110200
KLYH 180554Z AUTO 00000KT 10SM CLR 23/21 A3010 RMK AO2 SLP182 T02280211 10272 20217 58005
KLYH 180454Z AUTO 34003KT 10SM CLR 23/21 A3011 RMK AO2 SLP185 T02280211 403330172
KLYH 180354Z AUTO 34003KT 10SM FEW060 23/21 A3011 RMK AO2 SLP185 T02330211
KLYH 180254Z AUTO 00000KT 10SM CLR 23/21 A3012 RMK AO2 SLP187 T02330206 53014
KLYH 180154Z 00000KT 10SM CLR 23/21 A3010 RMK AO2 SLP180 T02330206
KLYH 180054Z 00000KT 10SM CLR 26/20 A3008 RMK AO2 SLP176 T02560200
KLYH 172354Z 00000KT 10SM CLR 27/21 A3008 RMK AO2 SLP175 T02720211 10333 20272 55003
KLYH 172254Z 01004KT 10SM CLR 32/18 A3007 RMK AO2 SLP172 T03170183
KLYH 172154Z 02005KT 10SM FEW060 33/18 A3007 RMK AO2 SLP172 T03280183
KLYH 172054Z 03003KT 10SM CLR 33/17 A3009 RMK AO2 SLP177 T03330172 58013
KLYH 171954Z VRB03KT 10SM CLR 33/18 A3010 RMK AO2 SLP180 T03280178
KLYH 171854Z VRB05KT 10SM FEW055 32/18 A3012 RMK AO2 SLP187 T03170183
KLYH 171754Z COR VRB05 10SM CLR 32/18 A3013 RMK AO2 SLP191 T03220178 10322 20217 58005
KLYH 171654Z 35005KT 10SM CLR 32/19 A3014 RMK AO2 SLP197 T03170189
KLYH 171554Z 00000KT 10SM CLR 32/19 A3015 RMK AO2 SLP196 T03170189
KLYH 171454Z VRB04KT 10SM CLR 30/18 A3014 RMK AO2 SLP196 T03000183 51012
KLYH 171354Z VRB05KT 10SM CLR 28/18 A3013 RMK AO2 SLP191 T02830183
KLYH 171254Z 00000KT 10SM CLR 27/18 A3012 RMK AO2 SLP191 T02670183
KLYH 171154Z 00000KT 10SM CLR 22/18 A3010 RMK AO2 SLP184 T02170178 10217 20172 51016
KLYH 171054Z 00000KT 10SM CLR 19/17 A3010 RMK AO2 SLP181 T01890167
KLYH 170954Z AUTO 00000KT 10SM CLR 18/16 A3007 RMK AO2 SLP173 T01780161
KLYH 170854Z AUTO 00000KT 10SM CLR 18/17 A3006 RMK AO2 SLP167 T01830167 56008
KLYH 170754Z AUTO 00000KT 10SM CLR 18/17 A3006 RMK AO2 SLP170 T01830172
KLYH 170654Z AUTO 00000KT 10SM CLR 19/17 A3007 RMK AO2 SLP173 T01890172
KLYH 170554Z AUTO 00000KT 10SM CLR 19/17 A3008 RMK AO2 SLP176 T01940172 10250 20194 58003
KLYH 170454Z AUTO 00000KT 10SM CLR 20/18 A3009 RMK AO2 SLP181 T02000178 403060156
KLYH 170354Z AUTO 00000KT 10SM BKN120 21/18 A3011 RMK AO2 SLP185 T02110183